sensor_id;sensor_type;location;lat;lon;timestamp;pressure;altitude;pressure_sealevel;temperature;humidity
50356;BME280;36264;51.296;-0.602;2023-08-24T00:00:28;101379.84;;;21.89;92.83
50356;BME280;36264;51.296;-0.602;2023-08-24T00:02:53;101383.66;;;21.73;93.20
50356;BME280;36264;51.296;-0.602;2023-08-24T00:05:19;101379.03;;;21.76;94.33
50356;BME280;36264;51.296;-0.602;2023-08-24T00:07:46;101376.88;;;21.56;94.70
50356;BME280;36264;51.296;-0.602;2023-08-24T00:10:13;101372.28;;;21.45;95.69
50356;BME280;36264;51.296;-0.602;2023-08-24T00:12:38;101376.59;;;21.46;94.77
50356;BME280;36264;51.296;-0.602;2023-08-24T00:15:08;101373.59;;;21.65;95.07
50356;BME280;36264;51.296;-0.602;2023-08-24T00:17:34;101378.97;;;21.50;94.09
50356;BME280;36264;51.296;-0.602;2023-08-24T00:19:59;101379.31;;;21.31;95.84
50356;BME280;36264;51.296;-0.602;2023-08-24T00:22:25;101380.59;;;21.26;95.45
50356;BME280;36264;51.296;-0.602;2023-08-24T00:24:50;101376.03;;;21.28;95.21
50356;BME280;36264;51.296;-0.602;2023-08-24T00:27:15;101376.25;;;21.25;95.67
50356;BME280;36264;51.296;-0.602;2023-08-24T00:29:41;101373.81;;;21.22;96.90
50356;BME280;36264;51.296;-0.602;2023-08-24T00:32:06;101377.94;;;21.26;96.83
50356;BME280;36264;51.296;-0.602;2023-08-24T00:34:33;101378.03;;;21.24;97.39
50356;BME280;36264;51.296;-0.602;2023-08-24T00:36:58;101382.50;;;21.24;97.29
50356;BME280;36264;51.296;-0.602;2023-08-24T00:39:24;101380.44;;;21.14;96.93
50356;BME280;36264;51.296;-0.602;2023-08-24T00:41:49;101376.06;;;21.01;97.90
50356;BME280;36264;51.296;-0.602;2023-08-24T00:44:14;101385.03;;;20.98;97.94
50356;BME280;36264;51.296;-0.602;2023-08-24T00:46:40;101371.63;;;21.01;97.97
50356;BME280;36264;51.296;-0.602;2023-08-24T00:49:06;101371.31;;;21.06;97.62
50356;BME280;36264;51.296;-0.602;2023-08-24T00:51:32;101373.63;;;20.97;98.07
50356;BME280;36264;51.296;-0.602;2023-08-24T00:53:57;101375.81;;;20.91;98.50
50356;BME280;36264;51.296;-0.602;2023-08-24T00:56:24;101370.34;;;20.94;99.00
50356;BME280;36264;51.296;-0.602;2023-08-24T00:58:50;101371.63;;;21.01;97.66
50356;BME280;36264;51.296;-0.602;2023-08-24T01:01:19;101354.69;;;21.18;97.24
50356;BME280;36264;51.296;-0.602;2023-08-24T01:03:45;101354.09;;;21.00;97.18
50356;BME280;36264;51.296;-0.602;2023-08-24T01:06:10;101359.28;;;21.02;97.25
50356;BME280;36264;51.296;-0.602;2023-08-24T01:08:36;101351.91;;;21.07;96.74
50356;BME280;36264;51.296;-0.602;2023-08-24T01:14:08;101341.50;;;21.31;96.54
50356;BME280;36264;51.296;-0.602;2023-08-24T01:16:35;101337.63;;;21.09;96.72
50356;BME280;36264;51.296;-0.602;2023-08-24T01:19:07;101333.09;;;21.11;96.42
50356;BME280;36264;51.296;-0.602;2023-08-24T01:21:36;101329.88;;;20.93;96.59
50356;BME280;36264;51.296;-0.602;2023-08-24T01:24:12;101348.09;;;20.84;100.00
50356;BME280;36264;51.296;-0.602;2023-08-24T01:26:39;101340.78;;;20.60;100.00
50356;BME280;36264;51.296;-0.602;2023-08-24T01:29:07;101328.53;;;20.73;99.92
50356;BME280;36264;51.296;-0.602;2023-08-24T01:31:33;101317.13;;;20.73;98.19
50356;BME280;36264;51.296;-0.602;2023-08-24T01:33:58;101318.94;;;20.58;99.86
50356;BME280;36264;51.296;-0.602;2023-08-24T01:36:25;101313.41;;;20.48;100.00
50356;BME280;36264;51.296;-0.602;2023-08-24T01:38:59;101301.34;;;20.86;100.00
50356;BME280;36264;51.296;-0.602;2023-08-24T01:41:34;101299.13;;;20.79;100.00
50356;BME280;36264;51.296;-0.602;2023-08-24T01:44:03;101294.56;;;20.81;100.00
50356;BME280;36264;51.296;-0.602;2023-08-24T01:46:29;101293.53;;;20.84;99.64
50356;BME280;36264;51.296;-0.602;2023-08-24T01:48:56;101284.53;;;20.87;98.75
50356;BME280;36264;51.296;-0.602;2023-08-24T01:51:23;101277.94;;;20.94;98.72
50356;BME280;36264;51.296;-0.602;2023-08-24T01:53:49;101264.50;;;20.84;98.37
50356;BME280;36264;51.296;-0.602;2023-08-24T01:56:16;101245.69;;;20.89;98.25
50356;BME280;36264;51.296;-0.602;2023-08-24T01:58:41;101238.13;;;20.70;98.94
50356;BME280;36264;51.296;-0.602;2023-08-24T02:01:08;101212.63;;;20.83;98.12
50356;BME280;36264;51.296;-0.602;2023-08-24T02:03:33;101203.94;;;20.68;98.74
50356;BME280;36264;51.296;-0.602;2023-08-24T02:05:59;101231.66;;;20.61;99.95
50356;BME280;36264;51.296;-0.602;2023-08-24T02:08:24;101250.63;;;20.53;100.00
50356;BME280;36264;51.296;-0.602;2023-08-24T02:10:50;101252.88;;;20.59;100.00
50356;BME280;36264;51.296;-0.602;2023-08-24T02:13:15;101235.50;;;20.70;100.00
50356;BME280;36264;51.296;-0.602;2023-08-24T02:15:41;101207.31;;;20.70;100.00
50356;BME280;36264;51.296;-0.602;2023-08-24T02:18:07;101211.53;;;20.73;99.95
50356;BME280;36264;51.296;-0.602;2023-08-24T02:20:38;101217.81;;;20.57;100.00
50356;BME280;36264;51.296;-0.602;2023-08-24T02:23:04;101219.09;;;20.37;100.00
50356;BME280;36264;51.296;-0.602;2023-08-24T02:25:30;101227.31;;;20.33;100.00
50356;BME280;36264;51.296;-0.602;2023-08-24T02:27:56;101226.09;;;20.38;100.00
50356;BME280;36264;51.296;-0.602;2023-08-24T02:30:21;101217.13;;;20.41;100.00
50356;BME280;36264;51.296;-0.602;2023-08-24T02:32:47;101212.41;;;20.46;99.38
50356;BME280;36264;51.296;-0.602;2023-08-24T02:35:12;101219.25;;;20.49;99.35
50356;BME280;36264;51.296;-0.602;2023-08-24T02:37:37;101202.50;;;20.50;98.61
50356;BME280;36264;51.296;-0.602;2023-08-24T02:40:03;101194.56;;;20.50;97.95
50356;BME280;36264;51.296;-0.602;2023-08-24T02:42:33;101206.09;;;20.61;98.86
50356;BME280;36264;51.296;-0.602;2023-08-24T02:44:58;101215.75;;;20.35;99.31
50356;BME280;36264;51.296;-0.602;2023-08-24T02:47:24;101211.59;;;20.31;99.80
50356;BME280;36264;51.296;-0.602;2023-08-24T02:49:49;101222.69;;;20.36;99.61
50356;BME280;36264;51.296;-0.602;2023-08-24T02:52:15;101231.28;;;20.40;99.29
50356;BME280;36264;51.296;-0.602;2023-08-24T02:54:40;101230.00;;;20.45;99.09
50356;BME280;36264;51.296;-0.602;2023-08-24T02:57:05;101227.66;;;20.41;99.94
50356;BME280;36264;51.296;-0.602;2023-08-24T02:59:31;101214.47;;;20.41;100.00
50356;BME280;36264;51.296;-0.602;2023-08-24T03:01:57;101215.25;;;20.43;99.80
50356;BME280;36264;51.296;-0.602;2023-08-24T03:04:22;101211.97;;;20.25;100.00
50356;BME280;36264;51.296;-0.602;2023-08-24T03:06:48;101212.31;;;20.06;100.00
50356;BME280;36264;51.296;-0.602;2023-08-24T03:09:13;101205.81;;;20.12;100.00
50356;BME280;36264;51.296;-0.602;2023-08-24T03:11:38;101193.63;;;20.23;100.00
50356;BME280;36264;51.296;-0.602;2023-08-24T03:14:04;101201.69;;;20.35;100.00
50356;BME280;36264;51.296;-0.602;2023-08-24T03:16:29;101194.53;;;20.37;100.00
50356;BME280;36264;51.296;-0.602;2023-08-24T03:18:54;101188.50;;;20.35;100.00
50356;BME280;36264;51.296;-0.602;2023-08-24T03:21:20;101182.97;;;20.25;100.00
50356;BME280;36264;51.296;-0.602;2023-08-24T03:23:45;101185.41;;;20.28;100.00
50356;BME280;36264;51.296;-0.602;2023-08-24T03:26:11;101179.00;;;20.32;100.00
50356;BME280;36264;51.296;-0.602;2023-08-24T03:28:36;101165.81;;;20.32;100.00
50356;BME280;36264;51.296;-0.602;2023-08-24T03:31:02;101156.63;;;20.38;100.00
50356;BME280;36264;51.296;-0.602;2023-08-24T03:33:27;101160.47;;;20.47;100.00
50356;BME280;36264;51.296;-0.602;2023-08-24T03:35:53;101159.00;;;20.55;100.00
50356;BME280;36264;51.296;-0.602;2023-08-24T03:38:19;101163.09;;;20.47;100.00
50356;BME280;36264;51.296;-0.602;2023-08-24T03:40:44;101162.28;;;20.46;100.00
50356;BME280;36264;51.296;-0.602;2023-08-24T03:43:10;101153.94;;;20.52;100.00
50356;BME280;36264;51.296;-0.602;2023-08-24T03:45:35;101157.03;;;20.59;100.00
50356;BME280;36264;51.296;-0.602;2023-08-24T03:48:01;101163.97;;;20.60;100.00
50356;BME280;36264;51.296;-0.602;2023-08-24T03:50:26;101165.25;;;20.54;100.00
50356;BME280;36264;51.296;-0.602;2023-08-24T03:52:52;101130.44;;;20.62;100.00
50356;BME280;36264;51.296;-0.602;2023-08-24T03:55:19;101108.94;;;20.41;100.00
50356;BME280;36264;51.296;-0.602;2023-08-24T03:57:44;101082.53;;;20.28;100.00
50356;BME280;36264;51.296;-0.602;2023-08-24T04:00:10;101075.16;;;20.33;100.00
50356;BME280;36264;51.296;-0.602;2023-08-24T04:02:38;101107.41;;;20.51;100.00
50356;BME280;36264;51.296;-0.602;2023-08-24T04:05:03;101120.78;;;20.48;100.00
50356;BME280;36264;51.296;-0.602;2023-08-24T04:07:29;101119.41;;;20.55;100.00
50356;BME280;36264;51.296;-0.602;2023-08-24T04:09:54;101154.78;;;20.53;100.00
50356;BME280;36264;51.296;-0.602;2023-08-24T04:12:20;101183.28;;;20.48;100.00
50356;BME280;36264;51.296;-0.602;2023-08-24T04:14:45;101184.66;;;20.53;100.00
50356;BME280;36264;51.296;-0.602;2023-08-24T04:17:10;101173.69;;;20.59;100.00
50356;BME280;36264;51.296;-0.602;2023-08-24T04:19:37;101174.53;;;20.87;100.00
50356;BME280;36264;51.296;-0.602;2023-08-24T04:22:03;101158.84;;;20.71;100.00
50356;BME280;36264;51.296;-0.602;2023-08-24T04:24:29;101177.31;;;20.71;100.00
50356;BME280;36264;51.296;-0.602;2023-08-24T04:26:54;101179.88;;;20.73;100.00
50356;BME280;36264;51.296;-0.602;2023-08-24T04:29:19;101168.47;;;20.72;100.00
50356;BME280;36264;51.296;-0.602;2023-08-24T04:31:45;101159.63;;;20.73;100.00
50356;BME280;36264;51.296;-0.602;2023-08-24T04:34:10;101152.63;;;20.72;100.00
50356;BME280;36264;51.296;-0.602;2023-08-24T04:36:37;101131.63;;;20.84;100.00
50356;BME280;36264;51.296;-0.602;2023-08-24T04:39:02;101114.53;;;20.89;100.00
50356;BME280;36264;51.296;-0.602;2023-08-24T04:41:27;101126.44;;;20.69;100.00
50356;BME280;36264;51.296;-0.602;2023-08-24T04:43:53;101140.16;;;20.74;100.00
50356;BME280;36264;51.296;-0.602;2023-08-24T04:46:19;101134.25;;;20.71;100.00
50356;BME280;36264;51.296;-0.602;2023-08-24T04:48:45;101138.28;;;20.76;100.00
50356;BME280;36264;51.296;-0.602;2023-08-24T04:51:10;101145.25;;;20.77;100.00
50356;BME280;36264;51.296;-0.602;2023-08-24T04:53:36;101161.06;;;20.77;100.00
50356;BME280;36264;51.296;-0.602;2023-08-24T04:56:01;101164.38;;;20.68;100.00
50356;BME280;36264;51.296;-0.602;2023-08-24T04:58:26;101156.72;;;20.63;100.00
50356;BME280;36264;51.296;-0.602;2023-08-24T05:00:52;101148.25;;;20.58;100.00
50356;BME280;36264;51.296;-0.602;2023-08-24T05:03:17;101151.84;;;20.57;100.00
50356;BME280;36264;51.296;-0.602;2023-08-24T05:05:43;101174.31;;;20.50;100.00
50356;BME280;36264;51.296;-0.602;2023-08-24T05:08:08;101162.06;;;20.49;100.00
50356;BME280;36264;51.296;-0.602;2023-08-24T05:10:36;101148.66;;;20.52;100.00
50356;BME280;36264;51.296;-0.602;2023-08-24T05:13:02;101162.81;;;20.51;100.00
50356;BME280;36264;51.296;-0.602;2023-08-24T05:15:28;101168.88;;;20.39;100.00
50356;BME280;36264;51.296;-0.602;2023-08-24T05:17:53;101160.34;;;20.35;100.00
50356;BME280;36264;51.296;-0.602;2023-08-24T05:20:24;101163.72;;;20.37;100.00
50356;BME280;36264;51.296;-0.602;2023-08-24T05:22:49;101162.97;;;20.35;100.00
50356;BME280;36264;51.296;-0.602;2023-08-24T05:25:15;101147.84;;;20.24;100.00
50356;BME280;36264;51.296;-0.602;2023-08-24T05:27:43;101179.50;;;20.24;100.00
50356;BME280;36264;51.296;-0.602;2023-08-24T05:30:09;101195.63;;;20.20;100.00
50356;BME280;36264;51.296;-0.602;2023-08-24T05:32:35;101192.88;;;20.21;100.00
50356;BME280;36264;51.296;-0.602;2023-08-24T05:35:07;101169.19;;;20.34;100.00
50356;BME280;36264;51.296;-0.602;2023-08-24T05:37:33;101167.75;;;20.16;100.00
50356;BME280;36264;51.296;-0.602;2023-08-24T05:39:59;101163.47;;;20.27;100.00
50356;BME280;36264;51.296;-0.602;2023-08-24T05:42:25;101157.56;;;20.24;100.00
50356;BME280;36264;51.296;-0.602;2023-08-24T05:44:50;101136.66;;;20.21;100.00
50356;BME280;36264;51.296;-0.602;2023-08-24T05:47:15;101152.78;;;20.16;100.00
50356;BME280;36264;51.296;-0.602;2023-08-24T05:49:41;101137.91;;;20.15;100.00
50356;BME280;36264;51.296;-0.602;2023-08-24T05:52:06;101133.25;;;20.19;100.00
50356;BME280;36264;51.296;-0.602;2023-08-24T05:54:32;101125.25;;;20.20;100.00
50356;BME280;36264;51.296;-0.602;2023-08-24T05:56:57;101112.72;;;20.24;100.00
50356;BME280;36264;51.296;-0.602;2023-08-24T05:59:26;101104.03;;;20.22;100.00
50356;BME280;36264;51.296;-0.602;2023-08-24T06:01:51;101117.22;;;20.22;100.00
50356;BME280;36264;51.296;-0.602;2023-08-24T06:04:16;101128.03;;;20.04;100.00
50356;BME280;36264;51.296;-0.602;2023-08-24T06:06:42;101127.31;;;20.02;100.00
50356;BME280;36264;51.296;-0.602;2023-08-24T06:09:07;101124.56;;;20.04;100.00
50356;BME280;36264;51.296;-0.602;2023-08-24T06:11:33;101104.53;;;20.14;100.00
50356;BME280;36264;51.296;-0.602;2023-08-24T06:13:58;101105.31;;;20.16;100.00
50356;BME280;36264;51.296;-0.602;2023-08-24T06:16:24;101116.41;;;20.21;100.00
50356;BME280;36264;51.296;-0.602;2023-08-24T06:18:49;101126.00;;;20.22;100.00
50356;BME280;36264;51.296;-0.602;2023-08-24T06:21:16;101127.47;;;20.26;100.00
50356;BME280;36264;51.296;-0.602;2023-08-24T06:23:41;101118.00;;;20.24;100.00
50356;BME280;36264;51.296;-0.602;2023-08-24T06:26:07;101125.50;;;20.30;100.00
50356;BME280;36264;51.296;-0.602;2023-08-24T06:28:32;101125.50;;;20.30;100.00
50356;BME280;36264;51.296;-0.602;2023-08-24T06:31:00;101118.69;;;20.53;100.00
50356;BME280;36264;51.296;-0.602;2023-08-24T06:33:28;101122.72;;;20.59;100.00
50356;BME280;36264;51.296;-0.602;2023-08-24T06:35:57;101133.66;;;20.40;100.00
50356;BME280;36264;51.296;-0.602;2023-08-24T06:38:23;101132.09;;;20.50;100.00
50356;BME280;36264;51.296;-0.602;2023-08-24T06:40:48;101121.31;;;20.53;100.00
50356;BME280;36264;51.296;-0.602;2023-08-24T06:43:13;101116.03;;;20.53;100.00
50356;BME280;36264;51.296;-0.602;2023-08-24T06:45:40;101133.63;;;20.67;100.00
50356;BME280;36264;51.296;-0.602;2023-08-24T06:48:05;101131.97;;;20.52;100.00
50356;BME280;36264;51.296;-0.602;2023-08-24T06:50:32;101154.25;;;20.48;100.00
50356;BME280;36264;51.296;-0.602;2023-08-24T06:52:58;101135.22;;;20.42;100.00
50356;BME280;36264;51.296;-0.602;2023-08-24T06:55:23;101153.63;;;20.57;100.00
50356;BME280;36264;51.296;-0.602;2023-08-24T06:57:49;101153.03;;;20.66;100.00
50356;BME280;36264;51.296;-0.602;2023-08-24T07:00:18;101152.94;;;20.80;100.00
50356;BME280;36264;51.296;-0.602;2023-08-24T07:02:46;101162.69;;;20.80;100.00
50356;BME280;36264;51.296;-0.602;2023-08-24T07:05:12;101154.13;;;20.76;100.00
50356;BME280;36264;51.296;-0.602;2023-08-24T07:07:37;101122.34;;;20.65;100.00
50356;BME280;36264;51.296;-0.602;2023-08-24T07:10:03;101133.72;;;20.66;100.00
50356;BME280;36264;51.296;-0.602;2023-08-24T07:12:29;101137.47;;;20.61;100.00
50356;BME280;36264;51.296;-0.602;2023-08-24T07:14:54;101124.28;;;20.61;100.00
50356;BME280;36264;51.296;-0.602;2023-08-24T07:17:20;101134.53;;;20.53;100.00
50356;BME280;36264;51.296;-0.602;2023-08-24T07:19:45;101126.69;;;20.52;100.00
50356;BME280;36264;51.296;-0.602;2023-08-24T07:22:10;101115.41;;;20.50;100.00
50356;BME280;36264;51.296;-0.602;2023-08-24T07:24:36;101132.50;;;20.57;100.00
50356;BME280;36264;51.296;-0.602;2023-08-24T07:27:02;101104.25;;;20.59;100.00
50356;BME280;36264;51.296;-0.602;2023-08-24T07:29:30;101092.63;;;20.61;100.00
50356;BME280;36264;51.296;-0.602;2023-08-24T07:31:56;101077.75;;;20.48;100.00
50356;BME280;36264;51.296;-0.602;2023-08-24T07:34:21;101077.09;;;20.57;100.00
50356;BME280;36264;51.296;-0.602;2023-08-24T07:36:47;101056.00;;;20.70;100.00
50356;BME280;36264;51.296;-0.602;2023-08-24T07:39:14;101056.66;;;20.60;100.00
50356;BME280;36264;51.296;-0.602;2023-08-24T07:41:40;101063.41;;;20.65;100.00
50356;BME280;36264;51.296;-0.602;2023-08-24T07:44:06;101069.00;;;20.73;100.00
50356;BME280;36264;51.296;-0.602;2023-08-24T07:46:32;101070.50;;;20.77;100.00
50356;BME280;36264;51.296;-0.602;2023-08-24T07:48:57;101076.59;;;20.77;100.00
50356;BME280;36264;51.296;-0.602;2023-08-24T07:51:22;101076.81;;;20.74;100.00
50356;BME280;36264;51.296;-0.602;2023-08-24T07:53:48;101054.34;;;20.81;100.00
50356;BME280;36264;51.296;-0.602;2023-08-24T07:56:15;101049.56;;;20.87;100.00
50356;BME280;36264;51.296;-0.602;2023-08-24T07:58:41;101044.72;;;20.80;100.00
50356;BME280;36264;51.296;-0.602;2023-08-24T08:01:06;101039.88;;;20.87;100.00
50356;BME280;36264;51.296;-0.602;2023-08-24T08:03:32;101019.38;;;20.91;100.00
50356;BME280;36264;51.296;-0.602;2023-08-24T08:05:57;101007.53;;;20.96;100.00
50356;BME280;36264;51.296;-0.602;2023-08-24T08:08:23;101010.16;;;20.96;100.00
50356;BME280;36264;51.296;-0.602;2023-08-24T08:10:57;100986.63;;;21.06;100.00
50356;BME280;36264;51.296;-0.602;2023-08-24T08:13:24;100998.81;;;20.83;100.00
50356;BME280;36264;51.296;-0.602;2023-08-24T08:15:49;101007.41;;;20.98;100.00
50356;BME280;36264;51.296;-0.602;2023-08-24T08:18:15;100990.19;;;21.05;100.00
50356;BME280;36264;51.296;-0.602;2023-08-24T08:20:40;100979.41;;;21.08;100.00
50356;BME280;36264;51.296;-0.602;2023-08-24T08:23:05;100971.66;;;20.94;100.00
50356;BME280;36264;51.296;-0.602;2023-08-24T08:25:31;100976.06;;;20.93;100.00
50356;BME280;36264;51.296;-0.602;2023-08-24T08:27:56;100982.72;;;20.99;100.00
50356;BME280;36264;51.296;-0.602;2023-08-24T08:30:21;100990.50;;;21.13;100.00
50356;BME280;36264;51.296;-0.602;2023-08-24T08:32:47;100980.00;;;21.25;100.00
50356;BME280;36264;51.296;-0.602;2023-08-24T08:35:13;100968.97;;;21.31;100.00
50356;BME280;36264;51.296;-0.602;2023-08-24T08:37:38;100970.34;;;21.37;100.00
50356;BME280;36264;51.296;-0.602;2023-08-24T08:40:04;100983.44;;;21.38;100.00
50356;BME280;36264;51.296;-0.602;2023-08-24T08:42:34;100994.28;;;21.46;100.00
50356;BME280;36264;51.296;-0.602;2023-08-24T08:45:02;100994.28;;;21.46;100.00
50356;BME280;36264;51.296;-0.602;2023-08-24T08:47:29;101016.94;;;21.38;100.00
50356;BME280;36264;51.296;-0.602;2023-08-24T08:49:55;101030.53;;;21.44;100.00
50356;BME280;36264;51.296;-0.602;2023-08-24T08:52:20;101032.97;;;21.47;100.00
50356;BME280;36264;51.296;-0.602;2023-08-24T08:54:46;101031.63;;;21.42;100.00
50356;BME280;36264;51.296;-0.602;2023-08-24T08:57:11;101043.53;;;21.47;100.00
50356;BME280;36264;51.296;-0.602;2023-08-24T08:59:38;101031.28;;;21.46;100.00
50356;BME280;36264;51.296;-0.602;2023-08-24T09:02:04;101039.41;;;21.56;100.00
50356;BME280;36264;51.296;-0.602;2023-08-24T09:04:31;101053.47;;;21.57;100.00
50356;BME280;36264;51.296;-0.602;2023-08-24T09:06:57;101067.31;;;21.47;100.00
50356;BME280;36264;51.296;-0.602;2023-08-24T09:09:25;101065.41;;;21.62;100.00
50356;BME280;36264;51.296;-0.602;2023-08-24T09:11:51;101066.06;;;21.53;100.00
50356;BME280;36264;51.296;-0.602;2023-08-24T09:14:16;101071.63;;;21.61;100.00
50356;BME280;36264;51.296;-0.602;2023-08-24T09:16:42;101072.13;;;21.66;100.00
50356;BME280;36264;51.296;-0.602;2023-08-24T09:19:11;101044.47;;;21.83;100.00
50356;BME280;36264;51.296;-0.602;2023-08-24T09:21:37;101019.63;;;21.86;100.00
50356;BME280;36264;51.296;-0.602;2023-08-24T09:24:03;101027.66;;;21.84;100.00
50356;BME280;36264;51.296;-0.602;2023-08-24T09:26:36;101016.22;;;22.08;100.00
50356;BME280;36264;51.296;-0.602;2023-08-24T09:29:13;101011.06;;;22.18;100.00
50356;BME280;36264;51.296;-0.602;2023-08-24T09:31:39;101016.78;;;22.00;100.00
50356;BME280;36264;51.296;-0.602;2023-08-24T09:34:06;101029.09;;;22.13;100.00
50356;BME280;36264;51.296;-0.602;2023-08-24T09:36:33;101020.81;;;22.17;100.00
50356;BME280;36264;51.296;-0.602;2023-08-24T09:38:59;101002.78;;;22.22;100.00
50356;BME280;36264;51.296;-0.602;2023-08-24T09:41:37;100997.31;;;22.48;100.00
50356;BME280;36264;51.296;-0.602;2023-08-24T09:44:04;101000.53;;;22.40;100.00
50356;BME280;36264;51.296;-0.602;2023-08-24T09:46:29;100999.94;;;22.37;100.00
50356;BME280;36264;51.296;-0.602;2023-08-24T09:48:55;100982.25;;;22.49;100.00
50356;BME280;36264;51.296;-0.602;2023-08-24T09:51:25;100982.41;;;22.81;100.00
50356;BME280;36264;51.296;-0.602;2023-08-24T09:53:51;100994.53;;;22.61;100.00
50356;BME280;36264;51.296;-0.602;2023-08-24T09:56:17;100991.31;;;22.57;100.00
50356;BME280;36264;51.296;-0.602;2023-08-24T09:58:44;100995.38;;;22.61;100.00
50356;BME280;36264;51.296;-0.602;2023-08-24T10:01:11;100995.88;;;22.67;100.00
50356;BME280;36264;51.296;-0.602;2023-08-24T10:03:39;100981.78;;;22.89;100.00
50356;BME280;36264;51.296;-0.602;2023-08-24T10:06:08;100983.69;;;22.98;100.00
50356;BME280;36264;51.296;-0.602;2023-08-24T10:08:37;100981.66;;;23.02;100.00
50356;BME280;36264;51.296;-0.602;2023-08-24T10:11:05;100979.47;;;23.18;100.00
50356;BME280;36264;51.296;-0.602;2023-08-24T10:16:47;100991.53;;;23.22;100.00
50356;BME280;36264;51.296;-0.602;2023-08-24T10:19:13;100990.19;;;23.17;100.00
50356;BME280;36264;51.296;-0.602;2023-08-24T10:21:39;100989.00;;;23.21;100.00
50356;BME280;36264;51.296;-0.602;2023-08-24T10:24:06;100994.31;;;23.21;100.00
50356;BME280;36264;51.296;-0.602;2023-08-24T10:26:33;100987.66;;;23.26;100.00
50356;BME280;36264;51.296;-0.602;2023-08-24T10:28:59;100993.66;;;23.40;100.00
50356;BME280;36264;51.296;-0.602;2023-08-24T10:31:25;101005.91;;;23.41;100.00
50356;BME280;36264;51.296;-0.602;2023-08-24T10:33:51;100993.84;;;23.48;100.00
50356;BME280;36264;51.296;-0.602;2023-08-24T10:36:18;100975.00;;;23.62;100.00
50356;BME280;36264;51.296;-0.602;2023-08-24T10:38:44;100972.22;;;23.64;100.00
50356;BME280;36264;51.296;-0.602;2023-08-24T10:41:10;100984.47;;;23.76;100.00
50356;BME280;36264;51.296;-0.602;2023-08-24T10:43:48;100983.63;;;23.87;100.00
50356;BME280;36264;51.296;-0.602;2023-08-24T10:46:14;100980.25;;;23.74;100.00
50356;BME280;36264;51.296;-0.602;2023-08-24T10:53:39;100974.09;;;24.05;100.00
50356;BME280;36264;51.296;-0.602;2023-08-24T10:56:12;100974.44;;;24.43;100.00
50356;BME280;36264;51.296;-0.602;2023-08-24T10:58:37;100972.00;;;24.30;100.00
50356;BME280;36264;51.296;-0.602;2023-08-24T11:01:03;100974.31;;;24.45;97.79
50356;BME280;36264;51.296;-0.602;2023-08-24T11:03:32;100963.53;;;24.67;95.01
50356;BME280;36264;51.296;-0.602;2023-08-24T11:06:00;100973.41;;;24.55;97.03
50356;BME280;36264;51.296;-0.602;2023-08-24T11:08:44;100967.41;;;24.94;100.00
50356;BME280;36264;51.296;-0.602;2023-08-24T11:11:20;100970.06;;;24.94;97.03
50356;BME280;36264;51.296;-0.602;2023-08-24T11:14:15;100970.34;;;25.01;91.92
50356;BME280;36264;51.296;-0.602;2023-08-24T11:16:42;100962.63;;;24.88;94.33
50356;BME280;36264;51.296;-0.602;2023-08-24T11:19:10;100968.69;;;25.00;95.24
50356;BME280;36264;51.296;-0.602;2023-08-24T11:21:37;100964.19;;;24.90;93.61
50356;BME280;36264;51.296;-0.602;2023-08-24T11:24:04;100954.13;;;24.94;95.75
50356;BME280;36264;51.296;-0.602;2023-08-24T11:26:30;100956.59;;;24.76;97.63
50356;BME280;36264;51.296;-0.602;2023-08-24T11:28:56;100937.28;;;24.74;95.33
50356;BME280;36264;51.296;-0.602;2023-08-24T11:31:23;100936.59;;;24.82;97.39
50356;BME280;36264;51.296;-0.602;2023-08-24T11:33:54;100926.31;;;24.98;99.92
50356;BME280;36264;51.296;-0.602;2023-08-24T11:36:20;100930.28;;;24.73;100.00
50356;BME280;36264;51.296;-0.602;2023-08-24T11:38:46;100932.09;;;24.72;100.00
50356;BME280;36264;51.296;-0.602;2023-08-24T11:41:17;100934.69;;;24.93;100.00
50356;BME280;36264;51.296;-0.602;2023-08-24T11:43:43;100930.59;;;24.80;100.00
50356;BME280;36264;51.296;-0.602;2023-08-24T11:46:09;100924.25;;;24.71;100.00
50356;BME280;36264;51.296;-0.602;2023-08-24T11:48:34;100925.00;;;24.73;100.00
50356;BME280;36264;51.296;-0.602;2023-08-24T11:51:02;100926.50;;;24.75;100.00
50356;BME280;36264;51.296;-0.602;2023-08-24T11:53:28;100917.72;;;24.85;100.00
50356;BME280;36264;51.296;-0.602;2023-08-24T11:55:54;100925.00;;;24.83;100.00
50356;BME280;36264;51.296;-0.602;2023-08-24T11:58:20;100933.13;;;24.91;100.00
50356;BME280;36264;51.296;-0.602;2023-08-24T12:00:46;100920.41;;;25.04;96.87
50356;BME280;36264;51.296;-0.602;2023-08-24T12:03:12;100929.81;;;25.18;97.50
50356;BME280;36264;51.296;-0.602;2023-08-24T12:05:38;100921.41;;;25.13;94.93
50356;BME280;36264;51.296;-0.602;2023-08-24T12:08:03;100920.31;;;25.16;94.28
50356;BME280;36264;51.296;-0.602;2023-08-24T12:10:29;100910.09;;;25.11;94.10
50356;BME280;36264;51.296;-0.602;2023-08-24T12:13:05;100903.97;;;25.40;95.74
50356;BME280;36264;51.296;-0.602;2023-08-24T12:15:33;100904.50;;;25.24;100.00
50356;BME280;36264;51.296;-0.602;2023-08-24T12:18:10;100901.72;;;25.25;98.87
50356;BME280;36264;51.296;-0.602;2023-08-24T12:20:35;100892.47;;;25.00;97.01
50356;BME280;36264;51.296;-0.602;2023-08-24T12:23:01;100904.06;;;24.99;95.95
50356;BME280;36264;51.296;-0.602;2023-08-24T12:25:26;100901.41;;;24.99;89.80
50356;BME280;36264;51.296;-0.602;2023-08-24T12:27:52;100904.19;;;25.07;93.92
50356;BME280;36264;51.296;-0.602;2023-08-24T12:30:19;100901.53;;;25.07;97.34
50356;BME280;36264;51.296;-0.602;2023-08-24T12:32:46;100897.09;;;25.08;95.72
50356;BME280;36264;51.296;-0.602;2023-08-24T12:35:14;100897.78;;;25.10;93.07
50356;BME280;36264;51.296;-0.602;2023-08-24T12:37:40;100887.69;;;24.94;95.20
50356;BME280;36264;51.296;-0.602;2023-08-24T12:40:06;100880.69;;;25.03;91.82